Reese AFB, Texas
Current Conditions -  °F | °C
As of 1:53 AM on Monday 26 Jan 2015 (Local Time) from KLBB Reporting Station
Clear Clear  
Wind Chill: -4°   Ceiling: Unl
Heat Index:   Visibility: 10mi
Dew Point: -2°   Wind: 9mph
Humidity: 85%   Direction: 260°W
Pressure: 30.26"   Gusts: NA
Location:  33.59°N, 102.03°W
Report Text: KLBB 260753Z 26008KT 10SM CLR 01/M02 A3026 RMK AO2 SLP236 T00061017
Loading
Personal Weather Stations






























Interactive Weather Map New forecast layout! Learn more

10-Day Weather Forecast

Advertisements
Track Severe Weather on mobile